• Join FlightAware (Why Join?)
  • Login
  • US Flag 
04:58AM EDT


 

Airport Tracker/Info


-or-


 

Live Flight TrackerFlight Track Log ✈ C-FTOH ✈ 07-Apr-2013 ✈ CYQB - KFLL

Flight Track Log - Related Links

Times and Time Zones

All times are in EDT time to prevent confusion due to time zone crossing. See the C-FTOH flight status page for this flight to view local times or setup timezone preferences in your user account.

Time Position Orientation Groundspeed Altitude Reporting Facility
EDT Latitude Longitude Course Direction KTS MPH feet Rate Location/Type
04:26PM 46.7980 -71.3840 44° Northeast 164 189 600  Level FlightAware
04:27PM 46.8160 -71.3610 41° Northeast 189 217 1,600 1,500 Climbing FlightAware
04:27PM 46.8380 -71.3320 42° Northeast 242 278 2,100 1,320 Climbing FlightAware
04:27PM 46.8460 -71.3210 43° Northeast 249 287 2,500 2,520 Climbing FlightAware
04:28PM 46.8740 -71.2870 40° Northeast 265 305 3,800 2,760 Climbing FlightAware
04:28PM 46.8870 -71.2690 43° Northeast 264 304 4,600 3,120 Climbing FlightAware
04:28PM 46.8950 -71.2560 48° Northeast 268 308 5,100 2,400 Climbing FlightAware
04:28PM 46.9010 -71.2310 71° East 267 307 5,600 1,560 Climbing FlightAware
04:29PM 46.8980 -71.2040 99° East 272 313 5,900 1,380 Climbing FlightAware
04:29PM 46.8870 -71.1820 126° Southeast 270 311 6,300 1,980 Climbing FlightAware
04:29PM 46.8710 -71.1720 157° South 254 292 6,900 2,520 Climbing FlightAware
04:30PM 46.8430 -71.1770 187° South 244 281 8,000 3,120 Climbing FlightAware
04:30PM 46.8110 -71.1910 197° South 236 272 9,800 2,520 Climbing FlightAware
04:31PM 46.7680 -71.2100 197° South 268 308 11,000 1,740 Climbing FlightAware
04:31PM 46.7120 -71.2340 196° South 297 342 12,300 2,220 Climbing FlightAware
04:32PM 46.6560 -71.2570 196° South 302 348 14,200 2,700 Climbing FlightAware
04:33PM 46.5960 -71.2830 197° South 306 352 16,200 2,520 Climbing FlightAware
04:34PM 46.5410 -71.3070 197° South 311 358 17,800 1,980 Climbing FlightAware
04:34PM 46.4860 -71.3300 196° South 329 379 18,900 1,500 Climbing FlightAware
04:35PM 46.4160 -71.3600 196° South 353 406 20,000 1,800 Climbing FlightAware
04:36PM 46.3540 -71.3860 196° South 356 410 21,500 1,980 Climbing FlightAware
04:36PM 46.2900 -71.4130 196° South 363 418 22,700 1,680 Climbing FlightAware
04:37PM 46.2170 -71.4430 196° South 376 433 23,900 1,620 Climbing FlightAware
04:38PM 46.1460 -71.4550 187° South 389 448 25,000 1,680 Climbing FlightAware
04:38PM 46.0650 -71.4630 184° South 391 450 26,300 1,620 Climbing FlightAware
04:39PM 45.9930 -71.4700 184° South 395 455 27,300 1,380 Climbing FlightAware
04:40PM 45.9110 -71.4780 184° South 401 461 28,300 1,260 Climbing FlightAware
04:41PM 45.8370 -71.4860 184° South 405 466 29,100 1,320 Climbing FlightAware
04:41PM 45.7640 -71.4970 186° South 395 455 30,100 1,440 Climbing FlightAware
04:42PM 45.6890 -71.5400 202° Southwest 384 442 31,200 1,320 Climbing FlightAware
04:43PM 45.6240 -71.5830 205° Southwest 384 442 32,000 1,260 Climbing FlightAware
04:43PM 45.5530 -71.6310 205° Southwest 384 442 33,000 1,200 Climbing FlightAware
04:44PM 45.4890 -71.6740 205° Southwest 384 442 33,700 1,080 Climbing FlightAware
04:45PM 45.4240 -71.7160 204° Southwest 383 441 34,500 960 Climbing FlightAware
04:45PM 45.3520 -71.7640 205° Southwest 384 442 35,100 720 Climbing FlightAware
04:46PM 45.2880 -71.8010 202° Southwest 390 449 35,600 600 Climbing FlightAware
04:47PM 45.2070 -71.8380 198° South 397 457 36,000 240 Climbing FlightAware
04:48PM 45.1370 -71.8700 198° South 398 458 36,000  Level FlightAware
04:48PM 45.0610 -71.9050 198° South 396 456 36,000  Level FlightAware
04:49PM 44.9910 -71.9370 198° South 394 453 36,000  Level FlightAware
04:50PM 44.9210 -71.9690 198° South 393 452 36,000  Level FlightAware
04:50PM 44.8420 -72.0040 197° South 393 452 36,000  Level FlightAware
04:51PM 44.7720 -72.0350 197° South 394 453 36,000  Level FlightAware
04:52PM 44.7030 -72.0670 198° South 393 452 36,000  Level FlightAware
04:52PM 44.6280 -72.1000 197° South 391 450 36,000  Level FlightAware
04:53PM 44.5610 -72.1300 198° South 391 450 36,000  Level FlightAware
04:54PM 44.4820 -72.1650 198° South 390 449 36,000  Level FlightAware
04:55PM 44.4140 -72.1950 197° South 388 447 36,000  Level FlightAware
04:55PM 44.3420 -72.2280 198° South 387 445 36,000  Level FlightAware
04:56PM 44.2670 -72.2610 197° South 391 450 36,000  Level FlightAware
04:57PM 44.1970 -72.2920 198° South 392 451 36,000  Level FlightAware
04:57PM 44.1180 -72.3260 197° South 394 453 36,000  Level FlightAware
04:58PM 44.0490 -72.3570 198° South 395 455 36,000  Level FlightAware
04:59PM 43.9780 -72.3880 197° South 394 453 36,000  Level FlightAware
04:59PM 43.9020 -72.4210 197° South 394 453 36,000  Level FlightAware
05:00PM 43.8330 -72.4510 197° South 395 455 36,000  Level FlightAware
05:01PM 43.7640 -72.4810 197° South 397 457 36,000  Level FlightAware
05:01PM 43.7000 -72.5090 198° South 398 458 36,000  Level FlightAware
05:02PM 43.6210 -72.5430 197° South 399 459 36,000  Level FlightAware
05:03PM 43.5510 -72.5730 197° South 399 459 36,000  Level FlightAware
05:04PM 43.4700 -72.6080 197° South 402 463 36,000  Level FlightAware
05:04PM 43.3990 -72.6390 198° South 400 460 36,000  Level FlightAware
05:05PM 43.3280 -72.6690 197° South 399 459 36,000  Level FlightAware
05:06PM 43.2540 -72.7010 197° South 399 459 36,000  Level FlightAware
05:06PM 43.1800 -72.7320 197° South 400 460 36,000  Level FlightAware
05:07PM 43.1100 -72.7620 197° South 401 461 36,000  Level FlightAware
05:08PM 43.0290 -72.7970 198° South 398 458 36,000  Level FlightAware
05:08PM 42.9590 -72.8260 197° South 397 457 36,000  Level FlightAware
05:09PM 42.8810 -72.8590 197° South 397 457 36,000  Level FlightAware
05:10PM 42.8110 -72.8890 197° South 398 458 36,000  Level FlightAware
05:10PM 42.7400 -72.9190 197° South 400 460 36,000  Level FlightAware
05:11PM 42.6610 -72.9520 197° South 402 463 36,000  Level FlightAware
05:12PM 42.5980 -72.9780 197° South 401 461 36,000  Level FlightAware
05:13PM 42.5120 -73.0130 197° South 398 458 36,000  Level FlightAware
05:13PM 42.4430 -73.0420 197° South 398 458 36,000  Level FlightAware
05:14PM 42.3710 -73.0720 197° South 395 455 36,000  Level FlightAware
05:15PM 42.2920 -73.1050 197° South 394 453 36,000  Level FlightAware
05:15PM 42.2220 -73.1370 199° South 385 443 36,000  Level FlightAware
05:16PM 42.1580 -73.1800 206° Southwest 382 440 36,000  Level FlightAware
05:17PM 42.1050 -73.2170 207° Southwest 382 440 36,000  Level FlightAware
05:17PM 42.0290 -73.2730 209° Southwest 386 444 36,000  Level FlightAware
05:18PM 41.9350 -73.3390 208° Southwest 386 444 36,000  Level FlightAware
05:19PM 41.8680 -73.3870 208° Southwest 386 444 36,000  Level FlightAware
05:20PM 41.8060 -73.4300 207° Southwest 386 444 36,000  Level FlightAware
05:20PM 41.7400 -73.4760 207° Southwest 386 444 36,000  Level FlightAware
05:21PM 41.7006 -73.5036 208° Southwest 386 444 36,000  Level FlightAware ADS-B
05:21PM 41.6481 -73.5403 208° Southwest 385 443 36,000  Level FlightAware ADS-B
05:22PM 41.5863 -73.5835 208° Southwest 385 443 36,000  Level FlightAware ADS-B
05:23PM 41.5388 -73.6163 207° Southwest 385 443 36,000  Level FlightAware ADS-B
05:23PM 41.4879 -73.6515 207° Southwest 385 443 36,000  Level FlightAware ADS-B
05:24PM 41.4404 -73.6845 208° Southwest 386 444 36,000  Level FlightAware ADS-B
05:24PM 41.3914 -73.7183 207° Southwest 387 445 36,000  Level FlightAware ADS-B
05:25PM 41.3427 -73.7516 207° Southwest 386 444 36,000  Level FlightAware ADS-B
05:25PM 41.3107 -73.7737 207° Southwest 386 444 36,000  Level FlightAware ADS-B
05:25PM 41.2902 -73.7879 207° Southwest 386 444 36,000  Level FlightAware ADS-B
05:25PM 41.2624 -73.8071 207° Southwest 386 444 36,000  Level FlightAware ADS-B
05:26PM 41.2374 -73.8243 207° Southwest 386 444 36,000  Level FlightAware ADS-B
05:26PM 41.1798 -73.8638 207° Southwest 386 444 36,000  Level FlightAware ADS-B
05:27PM 41.1279 -73.8992 207° Southwest 386 444 36,000  Level FlightAware ADS-B
05:27PM 41.1253 -73.9011 209° Southwest 386 444 36,000  Level FlightAware ADS-B
05:27PM 41.0779 -73.9334 207° Southwest 387 445 36,000  Level FlightAware ADS-B
05:27PM 41.0765 -73.9344 208° Southwest 388 447 36,000  Level FlightAware ADS-B
05:28PM 41.0300 -73.9660 207° Southwest 390 449 36,000  Level FlightAware ADS-B
05:28PM 40.9753 -74.0033 207° Southwest 391 450 36,000  Level FlightAware ADS-B
05:29PM 40.9577 -74.0153 207° Southwest 392 451 36,000  Level FlightAware ADS-B
05:29PM 40.9082 -74.0489 207° Southwest 394 453 36,000  Level FlightAware ADS-B
05:29PM 40.9032 -74.0523 207° Southwest 393 452 36,000  Level FlightAware ADS-B
05:30PM 40.8575 -74.0832 207° Southwest 392 451 36,000  Level FlightAware ADS-B
05:30PM 40.8515 -74.0873 207° Southwest 393 452 36,000  Level FlightAware ADS-B
05:30PM 40.7920 -74.1276 207° Southwest 390 449 36,000  Level FlightAware ADS-B
05:31PM 40.7778 -74.1371 207° Southwest 390 449 36,000  Level FlightAware ADS-B
05:31PM 40.7380 -74.1639 207° Southwest 390 449 36,000  Level FlightAware ADS-B
05:31PM 40.6863 -74.1988 207° Southwest 389 448 36,000  Level FlightAware ADS-B
05:32PM 40.6345 -74.2337 207° Southwest 389 448 36,000  Level FlightAware ADS-B
05:33PM 40.5829 -74.2684 207° Southwest 389 448 36,000  Level FlightAware ADS-B
05:33PM 40.5394 -74.2974 207° Southwest 36,000  Level FlightAware ADS-B
05:33PM 40.5321 -74.3024 208° Southwest 387 445 36,000  Level FlightAware ADS-B
05:33PM 40.5016 -74.3227 207° Southwest 387 445 36,000  Level FlightAware ADS-B
05:34PM 40.4844 -74.3342 207° Southwest 388 447 36,000  Level FlightAware ADS-B
05:34PM 40.4355 -74.3671 207° Southwest 386 444 36,000  Level FlightAware ADS-B
05:35PM 40.3847 -74.4010 207° Southwest 387 445 36,000  Level FlightAware ADS-B
05:35PM 40.3245 -74.4410 207° Southwest 388 447 36,000  Level FlightAware ADS-B
05:36PM 40.2761 -74.4731 207° Southwest 389 448 36,000  Level FlightAware ADS-B
05:36PM 40.2277 -74.5053 207° Southwest 390 449 36,000  Level FlightAware ADS-B
05:37PM 40.1763 -74.5393 207° Southwest 391 450 36,000  Level FlightAware ADS-B
05:37PM 40.1266 -74.5722 207° Southwest 392 451 36,000  Level FlightAware ADS-B
05:38PM 40.0756 -74.6059 207° Southwest 394 453 36,000  Level FlightAware ADS-B
05:38PM 40.0265 -74.6383 207° Southwest 394 453 36,000  Level FlightAware ADS-B
05:39PM 39.9768 -74.6710 207° Southwest 394 453 36,000  Level FlightAware ADS-B
05:39PM 39.9280 -74.7032 207° Southwest 396 456 36,000  Level FlightAware ADS-B
05:40PM 39.8671 -74.7431 207° Southwest 396 456 36,000  Level FlightAware ADS-B
05:41PM 39.8112 -74.7797 207° Southwest 398 458 36,000  Level FlightAware ADS-B
05:41PM 39.7581 -74.8144 207° Southwest 399 459 36,000  Level FlightAware ADS-B
05:42PM 39.7083 -74.8470 207° Southwest 400 460 36,000  Level FlightAware ADS-B
05:42PM 39.6509 -74.8843 207° Southwest 401 461 36,000  Level FlightAware ADS-B
05:43PM 39.6002 -74.9172 207° Southwest 401 461 36,000  Level FlightAware ADS-B
05:43PM 39.5406 -74.9558 207° Southwest 400 460 36,000  Level FlightAware ADS-B
05:44PM 39.4895 -74.9888 206° Southwest 399 459 36,000  Level FlightAware ADS-B
05:44PM 39.4377 -75.0201 205° Southwest 400 460 36,000  Level FlightAware ADS-B
05:45PM 39.3867 -75.0504 205° Southwest 399 459 36,000  Level FlightAware ADS-B
05:45PM 39.3361 -75.0810 205° Southwest 399 459 36,000  Level FlightAware ADS-B
05:46PM 39.2585 -75.1276 205° Southwest 400 460 36,000  Level FlightAware ADS-B
05:47PM 39.1941 -75.1663 205° Southwest 400 460 36,000  Level FlightAware ADS-B
05:47PM 39.1408 -75.1986 205° Southwest 401 461 36,000  Level FlightAware ADS-B
05:48PM 39.0895 -75.2293 205° Southwest 402 463 36,000  Level FlightAware ADS-B
05:48PM 39.0370 -75.2606 205° Southwest 403 464 36,000  Level FlightAware ADS-B
05:49PM 38.9950 -75.2860 205° Southwest 402 463 36,000  Level FlightAware
05:49PM 38.9647 -75.3038 205° Southwest 403 464 36,000  Level FlightAware ADS-B
05:50PM 38.9126 -75.3349 205° Southwest 402 463 36,000  Level FlightAware ADS-B
05:50PM 38.8460 -75.3750 205° Southwest 401 461 36,000  Level FlightAware
05:50PM 38.8147 -75.3931 204° Southwest 400 460 36,000  Level FlightAware ADS-B
05:51PM 38.7710 -75.4190 205° Southwest 399 459 36,000  Level FlightAware
05:51PM 38.7606 -75.4251 205° Southwest 398 458 36,000  Level FlightAware ADS-B
05:52PM 38.7022 -75.4597 205° Southwest 397 457 36,000  Level FlightAware ADS-B
05:52PM 38.6520 -75.4893 205° Southwest 396 456 36,000  Level FlightAware ADS-B
05:53PM 38.5990 -75.5205 205° Southwest 396 456 36,000  Level FlightAware ADS-B
05:53PM 38.5370 -75.5570 205° Southwest 395 455 36,000  Level FlightAware ADS-B
05:54PM 38.4872 -75.5862 205° Southwest 395 455 36,000  Level FlightAware ADS-B
05:54PM 38.4320 -75.6187 205° Southwest 395 455 36,000  Level FlightAware ADS-B
05:55PM 38.3803 -75.6490 205° Southwest 395 455 36,000  Level FlightAware ADS-B
05:56PM 38.2853 -75.7046 205° Southwest 394 453 36,000  Level FlightAware ADS-B
05:56PM 38.2244 -75.7400 205° Southwest 394 453 36,000  Level FlightAware ADS-B
05:57PM 38.1642 -75.7751 205° Southwest 395 455 36,000  Level FlightAware ADS-B
05:58PM 38.1133 -75.8046 205° Southwest 395 455 36,000  Level FlightAware ADS-B
05:59PM 38.0090 -75.8650 205° Southwest 397 457 36,000  Level FlightAware
05:59PM 37.9782 -75.8829 205° Southwest 397 457 36,000  Level FlightAware ADS-B
05:59PM 37.9350 -75.9080 205° Southwest 398 458 36,000  Level FlightAware
05:59PM 37.9179 -75.9176 204° Southwest 397 457 36,000  Level FlightAware ADS-B
06:00PM 37.8646 -75.9484 205° Southwest 396 456 36,000  Level FlightAware ADS-B
06:01PM 37.8139 -75.9776 204° Southwest 396 456 36,000  Level FlightAware ADS-B
06:02PM 37.7300 -76.0250 204° Southwest 395 455 36,000  Level FlightAware
06:02PM 37.6390 -76.0780 205° Southwest 400 460 36,000  Level FlightAware
06:03PM 37.5600 -76.1230 204° Southwest 401 461 36,000  Level FlightAware
06:04PM 37.4830 -76.1670 204° Southwest 401 461 36,000  Level FlightAware
06:04PM 37.4344 -76.1947 204° Southwest 401 461 36,000  Level FlightAware ADS-B
06:05PM 37.3830 -76.2240 204° Southwest 400 460 36,000  Level FlightAware ADS-B
06:05PM 37.3287 -76.2547 204° Southwest 400 460 36,000  Level FlightAware ADS-B
06:06PM 37.2743 -76.2857 204° Southwest 401 461 36,000  Level FlightAware ADS-B
06:06PM 37.2204 -76.3162 204° Southwest 401 461 36,000  Level FlightAware ADS-B
06:07PM 37.1691 -76.3452 204° Southwest 401 461 36,000  Level FlightAware ADS-B
06:08PM 37.1050 -76.3810 204° Southwest 402 463 36,000  Level FlightAware
06:08PM 37.0240 -76.4270 204° Southwest 403 464 36,000  Level FlightAware
06:09PM 36.9640 -76.4610 204° Southwest 404 465 36,000  Level FlightAware
06:10PM 36.8850 -76.5030 203° Southwest 407 468 36,000  Level FlightAware
06:11PM 36.7760 -76.5480 198° South 409 471 36,000  Level FlightAware
06:11PM 36.7310 -76.5660 198° South 409 471 36,000  Level FlightAware
06:12PM 36.6100 -76.6170 199° South 411 473 36,000  Level FlightAware
06:13PM 36.5440 -76.6430 198° South 411 473 36,000  Level FlightAware
06:14PM 36.4810 -76.6690 198° South 411 473 36,000  Level FlightAware
06:14PM 36.4250 -76.6910 198° South 411 473 36,000  Level FlightAware
06:15PM 36.3490 -76.7220 198° South 411 473 36,000  Level FlightAware
06:16PM 36.2870 -76.7470 198° South 411 473 36,000  Level FlightAware
06:17PM 36.2260 -76.7720 198° South 411 473 36,000  Level FlightAware
06:17PM 36.1640 -76.7960 197° South 411 473 36,000  Level FlightAware
06:18PM 36.1030 -76.8210 198° South 411 473 36,000  Level FlightAware
06:19PM 36.0260 -76.8520 198° South 411 473 36,000  Level FlightAware
06:19PM 35.9640 -76.8770 198° South 411 473 36,000  Level FlightAware
06:20PM 35.9030 -76.9010 198° South 411 473 36,000  Level FlightAware
06:21PM 35.8410 -76.9260 198° South 411 473 36,000  Level FlightAware
06:21PM 35.7800 -76.9510 198° South 411 473 36,000  Level FlightAware
06:22PM 35.5380 -77.0560 199° South 406 467 36,000  Level FlightAware
06:23PM 35.4530 -77.0900 198° South 407 468 36,000  Level FlightAware
06:24PM 35.3780 -77.1200 198° South 407 468 36,000  Level FlightAware
06:24PM 35.3170 -77.1440 198° South 407 468 36,000  Level FlightAware
06:25PM 35.2560 -77.1680 198° South 407 468 36,000  Level FlightAware
06:26PM 35.1800 -77.1990 198° South 407 468 36,000  Level FlightAware
06:27PM 35.1190 -77.2230 198° South 407 468 36,000  Level FlightAware
06:27PM 35.0590 -77.2470 198° South 407 468 36,000  Level FlightAware
06:28PM 34.9980 -77.2710 198° South 407 468 36,000  Level FlightAware
06:29PM 34.9370 -77.2950 198° South 407 468 36,000  Level FlightAware
06:29PM 34.8610 -77.3260 199° South 407 468 36,000  Level FlightAware
06:30PM 34.8000 -77.3500 198° South 407 468 36,000  Level FlightAware
06:31PM 34.7390 -77.3740 198° South 407 468 36,000  Level FlightAware
06:31PM 34.6780 -77.3980 198° South 407 468 36,000  Level FlightAware
06:32PM 34.6020 -77.4280 198° South 407 468 36,000  Level FlightAware
06:33PM 34.5410 -77.4520 198° South 407 468 36,000 -120 Level FlightAware
06:34PM 34.2764 -77.5581 198° South 419 482 35,900  Descending Jacksonville Center
06:35PM 34.1717 -77.5944 196° South 419 482 36,000  Climbing Jacksonville Center
06:36PM 34.0589 -77.6414 199° South 430 495 36,000  Level Jacksonville Center
06:37PM 33.9458 -77.6833 197° South 430 495 36,000  Level Jacksonville Center
06:38PM 33.8328 -77.7275 198° South 430 495 36,000  Level Jacksonville Center
06:39PM 33.7219 -77.7714 198° South 430 495 36,000 -60 Level Jacksonville Center
06:40PM 33.6069 -77.8156 198° South 435 501 35,900  Descending Jacksonville Center
06:41PM 33.4939 -77.8594 198° South 435 501 36,000  Climbing Jacksonville Center
06:42PM 33.3831 -77.9006 197° South 435 501 36,000  Level Jacksonville Center
06:43PM 33.2719 -77.9414 197° South 429 494 36,000  Level Jacksonville Center
06:44PM 33.1589 -77.9850 198° South 429 494 36,000  Level Jacksonville Center
06:46PM 32.9306 -78.0717 198° South 434 499 36,000  Level Jacksonville Center
06:47PM 32.8153 -78.1125 197° South 434 499 36,000  Level Jacksonville Center
06:48PM 32.7022 -78.1578 199° South 434 499 36,000  Level Jacksonville Center
06:49PM 32.5869 -78.2008 197° South 434 499 36,000 -60 Level Jacksonville Center
06:50PM 32.4736 -78.2411 197° South 434 499 35,900  Descending Jacksonville Center
06:51PM 32.3603 -78.2864 199° South 434 499 36,000  Climbing Jacksonville Center
06:52PM 32.2367 -78.3319 197° South 434 499 36,000  Level Jacksonville Center
06:53PM 32.1214 -78.3744 197° South 434 499 36,000  Level Jacksonville Center
06:54PM 32.0081 -78.4142 197° South 434 499 36,000  Level Jacksonville Center
06:55PM 31.8944 -78.4517 196° South 434 499 36,000  Level Jacksonville Center
06:56PM 31.7831 -78.4886 196° South 429 494 36,000  Level Jacksonville Center
06:57PM 31.6697 -78.5308 198° South 429 494 36,000  Level Jacksonville Center
06:58PM 31.5564 -78.5703 197° South 427 491 36,000  Level Jacksonville Center
06:59PM 31.4406 -78.6072 195° South 432 497 36,000  Level Jacksonville Center
07:00PM 31.3272 -78.6464 196° South 432 497 36,000  Level Jacksonville Center
07:01PM 31.2097 -78.6883 197° South 437 503 36,000  Level Jacksonville Center
07:02PM 31.0961 -78.7247 195° South 432 497 36,000  Level Jacksonville Center
07:03PM 30.9825 -78.7661 197° South 437 503 36,000 -60 Level Jacksonville Center
07:04PM 30.8647 -78.8053 196° South 437 503 35,900  Descending Jacksonville Center
07:05PM 30.7450 -78.8442 196° South 437 503 36,000  Climbing Jacksonville Center
07:06PM 30.5406 -78.9119 196° South 429 494 36,000  Level Miami Center
07:07PM 30.4297 -78.9483 196° South 424 488 36,000 -60 Level Miami Center
07:08PM 30.3061 -78.9842 194° South 434 499 35,900  Descending Miami Center
07:09PM 30.1892 -79.0131 192° South 440 506 36,000  Climbing Miami Center
07:10PM 30.0656 -79.0467 193° South 440 506 35,900  Descending Miami Center
07:11PM 29.9544 -79.0825 196° South 434 499 36,000  Climbing Miami Center
07:12PM 29.8414 -79.1161 194° South 434 499 36,000  Level Miami Center
07:13PM 29.7200 -79.1447 192° South 434 499 36,000  Level Miami Center
07:14PM 29.6025 -79.1806 195° South 434 499 36,000  Level Miami Center
07:15PM 29.4853 -79.2114 193° South 434 499 36,000  Level Miami Center
07:16PM 29.3619 -79.2372 190° South 434 499 36,000  Level Miami Center
07:17PM 29.2444 -79.2703 194° South 434 499 36,000  Level Miami Center
07:24PM 28.5000 -79.4660 194° South 428 493 36,000  Level FlightAware
07:24PM 28.4200 -79.4860 192° South 428 493 36,000  Level FlightAware
07:25PM 28.3140 -79.5140 193° South 429 494 36,000  Level FlightAware
07:26PM 28.2340 -79.5350 193° South 428 493 36,000  Level FlightAware
07:27PM 28.1420 -79.5590 193° South 428 493 36,000  Level FlightAware
07:27PM 28.0680 -79.5780 193° South 427 491 36,000  Level FlightAware
07:28PM 27.9800 -79.6010 193° South 426 490 36,000  Level FlightAware
07:29PM 27.9070 -79.6200 193° South 426 490 36,000 -360 Level FlightAware
07:29PM 27.8070 -79.6460 193° South 432 497 35,500 -1,020 Descending FlightAware
07:30PM 27.7330 -79.6660 193° South 432 497 34,500 -2,400 Descending FlightAware
07:31PM 27.6550 -79.6800 189° South 452 520 32,300 -3,840 Descending FlightAware
07:32PM 27.5520 -79.6810 180° South 463 533 29,100 -3,360 Descending FlightAware
07:32PM 27.4720 -79.6810 180° South 449 517 27,600 -2,400 Descending FlightAware
07:33PM 27.3590 -79.6810 180° South 431 496 25,300 -2,580 Descending FlightAware
07:34PM 27.2820 -79.6810 180° South 422 486 23,800 -2,520 Descending FlightAware
07:35PM 27.1840 -79.6820 181° South 419 482 21,800 -2,340 Descending FlightAware
07:35PM 27.1000 -79.6820 180° South 401 461 20,100 -2,280 Descending FlightAware
07:36PM 27.0270 -79.6830 181° South 400 460 18,600 -2,340 Descending FlightAware
07:37PM 26.9590 -79.6830 180° South 383 441 17,200 -2,340 Descending FlightAware
07:37PM 26.8710 -79.6840 181° South 374 430 15,300 -2,280 Descending FlightAware
07:38PM 26.8020 -79.6840 180° South 367 422 13,800 -2,280 Descending FlightAware
07:39PM 26.7110 -79.7020 190° South 355 409 11,700 -2,040 Descending FlightAware
07:40PM 26.6430 -79.7350 203° Southwest 336 387 10,400 -1,200 Descending FlightAware
07:40PM 26.5850 -79.7630 203° Southwest 299 344 10,000 -540 Descending FlightAware
07:41PM 26.5490 -79.7800 203° Southwest 284 327 9,800 -900 Descending FlightAware
07:41PM 26.5170 -79.7950 203° Southwest 280 322 9,200 -1,320 Descending FlightAware
07:42PM 26.4840 -79.8110 203° Southwest 276 318 8,600 -1,440 Descending FlightAware
07:42PM 26.4510 -79.8260 202° Southwest 269 310 7,900 -900 Descending FlightAware
07:43PM 26.4200 -79.8410 203° Southwest 262 302 7,800  Descending FlightAware
07:43PM 26.3820 -79.8610 205° Southwest 270 311 7,900  Climbing FlightAware
07:44PM 26.3600 -79.8810 219° Southwest 280 322 7,800 -1,140 Descending FlightAware
07:44PM 26.3270 -79.9120 220° Southwest 282 325 6,900 -1,020 Descending FlightAware
07:45PM 26.2990 -79.9390 221° Southwest 281 323 6,800  Descending FlightAware
07:45PM 26.2780 -79.9600 222° Southwest 280 322 6,900 60 Climbing FlightAware
07:46PM 26.2460 -79.9900 220° Southwest 279 321 6,900  Level FlightAware
07:46PM 26.2190 -80.0160 221° Southwest 278 320 6,900  Level FlightAware
07:46PM 26.2040 -80.0300 220° Southwest 278 320 6,900  Level FlightAware
07:47PM 26.1780 -80.0630 229° Southwest 276 318 6,900  Level FlightAware
07:47PM 26.1690 -80.0960 253° West 275 316 6,900  Level FlightAware
07:48PM 26.1580 -80.1370 253° West 274 315 6,900 -300 Level FlightAware
07:48PM 26.1530 -80.1750 262° West 262 302 6,600 -600 Descending FlightAware
07:49PM 26.1530 -80.2110 270° West 243 280 6,400 -780 Descending FlightAware
07:49PM 26.1530 -80.2580 270° West 235 270 5,800 -1,140 Descending FlightAware
07:50PM 26.1530 -80.2940 270° West 235 270 5,100 -1,440 Descending FlightAware
07:50PM 26.1480 -80.3230 259° West 220 253 4,500 -1,680 Descending FlightAware
07:50PM 26.1370 -80.3350 224° Southwest 208 239 4,000 -1,800 Descending FlightAware
07:51PM 26.1230 -80.3380 191° South 208 239 3,600 -1,620 Descending FlightAware
07:51PM 26.1100 -80.3340 165° South 191 220 3,200 -1,620 Descending FlightAware
07:51PM 26.1020 -80.3240 132° Southeast 182 209 2,800 -1,680 Descending FlightAware
07:52PM 26.0920 -80.3020 117° Southeast 182 209 2,100 -1,200 Descending FlightAware
07:52PM 26.0820 -80.2790 116° Southeast 164 189 1,700 -660 Descending FlightAware
07:52PM 26.0780 -80.2600 103° East 157 181 1,500 -600 Descending FlightAware
07:53PM 26.0780 -80.2470 90° East 148 170 1,300 -840 Descending FlightAware
07:53PM 26.0770 -80.2250 93° East 141 162 900 -780 Descending FlightAware
07:54PM 26.0770 -80.2070 90° East 139 160 600 -780 Descending FlightAware
07:54PM 26.0770 -80.1980 90° East 141 162 400 -480 Descending FlightAware
07:55PM 26.0770 -80.1680 90° East 143 165 200 -300 Descending FlightAware
08:02PM 26.0667 -80.1500 103° East  Level FlightAware Approximate
08:03PM 26.0726 -80.1527 103° East  Level Estimated